• Join FlightAware (Why Join?)
  • Login
  • US Flag 
10:48AM EDT


 

Airport Tracker/Info


-or-


 

Live Flight TrackerFlight Track Log ✈ N589H ✈ 19-Apr-2014 ✈ KPIE - KHYA

Flight Track Log - Related Links

Times and Time Zones

All times are in EDT time to prevent confusion due to time zone crossing. See the N589H flight status page for this flight to view local times or setup timezone preferences in your user account.

Time Position Orientation Groundspeed Altitude Reporting Facility
EDT Latitude Longitude Course Direction KTS MPH feet Rate Location/Type
09:36AM 27.9000 -82.6833 241° Southwest 132 152 400  Level Tampa TRACON
09:37AM 27.8833 -82.7167 241° Southwest 152 175 1,400 1,560 Climbing Tampa TRACON
09:38AM 27.8833 -82.7500 270° West 166 191 2,900 1,560 Climbing Tampa TRACON
09:39AM 27.9333 -82.7667 344° North 216 249 4,600 1,860 Climbing Tampa TRACON
09:40AM 28.0000 -82.7667 360° North 222 255 6,900 2,100 Climbing Tampa TRACON
09:41AM 28.0667 -82.7500 12° North 222 255 9,100 1,560 Climbing Tampa TRACON
09:43AM 28.2250 -82.6922 18° North 263 303 12,400 1,560 Climbing Jacksonville Center
09:44AM 28.3000 -82.6614 20° North 274 315 14,500 2,040 Climbing Jacksonville Center
09:45AM 28.3689 -82.6283 23° Northeast 279 321 16,600 1,860 Climbing Jacksonville Center
09:46AM 28.4375 -82.5950 23° Northeast 272 313 18,300 1,620 Climbing Jacksonville Center
09:47AM 28.5083 -82.5619 22° Northeast 272 313 19,900 1,560 Climbing Jacksonville Center
09:48AM 28.5833 -82.5286 21° North 272 313 21,500 1,560 Climbing Jacksonville Center
09:49AM 28.6606 -82.5164 North 272 313 23,100 1,500 Climbing Jacksonville Center
09:50AM 28.7419 -82.5019 North 282 325 24,600 1,440 Climbing Jacksonville Center
09:51AM 28.8256 -82.4969 North 351 404 26,000 1,320 Climbing Jacksonville Center
09:52AM 28.9089 -82.5108 352° North 340 391 27,300 1,260 Climbing Jacksonville Center
09:53AM 28.9925 -82.5200 355° North 314 361 28,600 1,200 Climbing Jacksonville Center
09:54AM 29.0761 -82.5339 352° North 304 350 29,800 960 Climbing Jacksonville Center
09:55AM 29.1617 -82.5453 353° North 304 350 30,600 900 Climbing Jacksonville Center
09:56AM 29.2494 -82.5569 353° North 304 350 31,600 780 Climbing Jacksonville Center
09:57AM 29.3350 -82.5733 351° North 309 356 32,200 540 Climbing Jacksonville Center
09:58AM 29.4206 -82.5875 352° North 309 356 32,700 360 Climbing Jacksonville Center
09:59AM 29.5125 -82.5919 358° North 322 371 33,000 120 Climbing Jacksonville Center
10:00AM 29.6086 -82.5917 360° North 333 383 33,000  Level Jacksonville Center
10:01AM 29.7108 -82.5889 North 343 395 33,000  Level Jacksonville Center
10:02AM 29.8131 -82.5886 360° North 355 409 33,000  Level Jacksonville Center
10:03AM 29.9300 -82.5881 360° North 370 426 33,000  Level Jacksonville Center
10:04AM 30.0114 -82.5783 North 375 432 33,000  Level Jacksonville Center
10:05AM 30.1072 -82.4989 36° Northeast 364 419 33,000  Level Jacksonville Center
10:06AM 30.1883 -82.4167 41° Northeast 370 426 33,000  Level Jacksonville Center
10:07AM 30.2819 -82.3272 40° Northeast 383 441 33,000  Level Jacksonville Center
10:08AM 30.3672 -82.2522 37° Northeast 389 448 33,000  Level Jacksonville Center
10:09AM 30.4544 -82.1744 38° Northeast 389 448 33,000  Level Jacksonville Center
10:10AM 30.5417 -82.0967 38° Northeast 389 448 33,000  Level Jacksonville Center
10:11AM 30.6269 -82.0233 36° Northeast 389 448 33,000  Level Jacksonville Center
10:12AM 30.7161 -81.9453 37° Northeast 389 448 33,000  Level Jacksonville Center
10:13AM 30.8031 -81.8694 37° Northeast 389 448 33,000  Level Jacksonville Center
10:14AM 30.8903 -81.7911 38° Northeast 389 448 33,000  Level Jacksonville Center
10:15AM 30.9772 -81.7150 37° Northeast 389 448 33,000  Level Jacksonville Center
10:16AM 31.0642 -81.6364 38° Northeast 389 448 33,000  Level Jacksonville Center
10:17AM 31.1489 -81.5622 37° Northeast 389 448 33,000  Level Jacksonville Center
10:18AM 31.2339 -81.4833 38° Northeast 384 442 33,000  Level Jacksonville Center
10:19AM 31.3164 -81.4092 38° Northeast 385 443 33,000  Level Jacksonville Center
10:20AM 31.4033 -81.3322 37° Northeast 385 443 33,000  Level Jacksonville Center
10:21AM 31.4797 -81.2628 38° Northeast 385 443 33,000  Level Jacksonville Center
10:22AM 31.5744 -81.1783 37° Northeast 385 443 33,000  Level Jacksonville Center
10:23AM 31.6528 -81.1061 38° Northeast 390 449 33,000  Level Jacksonville Center
10:24AM 31.7456 -81.0211 38° Northeast 390 449 33,000  Level Jacksonville Center
10:25AM 31.8319 -80.9411 38° Northeast 390 449 33,000  Level Jacksonville Center
10:26AM 31.9103 -80.8711 37° Northeast 390 449 33,000  Level Jacksonville Center
10:27AM 32.0050 -80.7856 37° Northeast 390 449 33,000  Level Jacksonville Center
10:28AM 32.0811 -80.7128 39° Northeast 390 449 33,000  Level Jacksonville Center
10:29AM 32.1753 -80.6222 39° Northeast 390 449 33,000  Level Jacksonville Center
10:30AM 32.2617 -80.5439 37° Northeast 390 449 33,000  Level Jacksonville Center
10:31AM 32.3478 -80.4631 38° Northeast 390 449 33,000  Level Jacksonville Center
10:32AM 32.4361 -80.3819 38° Northeast 390 449 33,000  Level Jacksonville Center
10:33AM 32.5158 -80.3083 38° Northeast 390 449 33,000  Level Jacksonville Center
10:34AM 32.6061 -80.2242 38° Northeast 395 455 33,000  Level Jacksonville Center
10:35AM 32.6942 -80.1428 38° Northeast 395 455 33,000  Level Jacksonville Center
10:36AM 32.7839 -80.0561 39° Northeast 400 460 33,000  Level Jacksonville Center
10:37AM 32.8719 -79.9717 39° Northeast 400 460 33,000  Level Jacksonville Center
10:38AM 32.9617 -79.8894 38° Northeast 405 466 33,000  Level Jacksonville Center
10:39AM 33.0494 -79.8047 39° Northeast 405 466 33,000  Level Jacksonville Center
10:40AM 33.1372 -79.7222 38° Northeast 405 466 33,000  Level Jacksonville Center
10:41AM 33.2228 -79.6397 39° Northeast 400 460 33,000  Level Jacksonville Center
10:42AM 33.3103 -79.5572 38° Northeast 400 460 33,000  Level Jacksonville Center
10:43AM 33.3936 -79.4769 39° Northeast 394 453 33,000  Level Jacksonville Center
10:44AM 33.4811 -79.3964 38° Northeast 389 448 33,000  Level Jacksonville Center
10:45AM 33.5644 -79.3133 40° Northeast 389 448 33,000  Level Jacksonville Center
10:46AM 33.6478 -79.2325 39° Northeast 389 448 33,000  Level Jacksonville Center
10:47AM 33.7308 -79.1542 38° Northeast 383 441 33,000  Level Jacksonville Center
10:48AM 33.8142 -79.0733 39° Northeast 383 441 33,000  Level Jacksonville Center
10:49AM 33.8969 -78.9894 40° Northeast 389 448 33,000  Level Jacksonville Center
10:52AM 34.1147 -78.7825 38° Northeast 386 444 33,000  Level Washington Center
10:53AM 34.1961 -78.7003 40° Northeast 386 444 33,000  Level Washington Center
10:54AM 34.2644 -78.6375 37° Northeast 386 444 33,000  Level Washington Center
10:55AM 34.3522 -78.5478 40° Northeast 386 444 33,000  Level Washington Center
10:56AM 34.4358 -78.4650 39° Northeast 386 444 33,000  Level Washington Center
10:57AM 34.5189 -78.3847 39° Northeast 386 444 33,000  Level Washington Center
10:58AM 34.6000 -78.3044 39° Northeast 386 444 33,000  Level Washington Center
10:59AM 34.6856 -78.2214 39° Northeast 386 444 33,000  Level Washington Center
11:00AM 34.7664 -78.1381 40° Northeast 386 444 33,000  Level Washington Center
11:01AM 34.8539 -78.0469 41° Northeast 386 444 33,000  Level Washington Center
11:02AM 34.9350 -77.9658 39° Northeast 380 437 33,000  Level Washington Center
11:03AM 35.0158 -77.8847 39° Northeast 380 437 33,000  Level Washington Center
11:04AM 35.0967 -77.8031 40° Northeast 380 437 33,000  Level Washington Center
11:05AM 35.1794 -77.7189 40° Northeast 380 437 33,000  Level Washington Center
11:06AM 35.2581 -77.6372 40° Northeast 380 437 33,000  Level Washington Center
11:07AM 35.3408 -77.5553 39° Northeast 380 437 33,000  Level Washington Center
11:08AM 35.4194 -77.4731 40° Northeast 380 437 33,000  Level Washington Center
11:09AM 35.5000 -77.3933 39° Northeast 380 437 33,000  Level Washington Center
11:10AM 35.5825 -77.3083 40° Northeast 380 437 33,000  Level Washington Center
11:11AM 35.6631 -77.2256 40° Northeast 380 437 33,000  Level Washington Center
11:12AM 35.7433 -77.1428 40° Northeast 380 437 33,000  Level Washington Center
11:13AM 35.8217 -77.0597 41° Northeast 380 437 33,000  Level Washington Center
11:14AM 35.9019 -76.9767 40° Northeast 380 437 33,000  Level Washington Center
11:15AM 35.9842 -76.8908 40° Northeast 385 443 33,000  Level Washington Center
11:16AM 36.0664 -76.8075 39° Northeast 385 443 33,000  Level Washington Center
11:17AM 36.1486 -76.7211 40° Northeast 385 443 33,000  Level Washington Center
11:18AM 36.2286 -76.6375 40° Northeast 385 443 33,000  Level Washington Center
11:19AM 36.3108 -76.5508 40° Northeast 385 443 33,000  Level Washington Center
11:20AM 36.3928 -76.4642 40° Northeast 385 443 33,000  Level Washington Center
11:21AM 36.4747 -76.3772 40° Northeast 385 443 33,000  Level Washington Center
11:22AM 36.5567 -76.2928 40° Northeast 385 443 33,000  Level Washington Center
11:23AM 36.6364 -76.2081 40° Northeast 385 443 33,000  Level Washington Center
11:24AM 36.7119 -76.1256 41° Northeast 391 450 33,000  Level Washington Center
11:25AM 36.7936 -76.0356 41° Northeast 391 450 33,000  Level Washington Center
11:26AM 36.8753 -75.9475 41° Northeast 391 450 33,000  Level Washington Center
11:27AM 36.9589 -75.8597 40° Northeast 385 443 33,000  Level Washington Center
11:28AM 37.0447 -75.7689 40° Northeast 390 449 33,000  Level Washington Center
11:29AM 37.1261 -75.6806 41° Northeast 390 449 33,000  Level Washington Center
11:30AM 37.2075 -75.5919 41° Northeast 384 442 33,000  Level Washington Center
11:31AM 37.2908 -75.5031 40° Northeast 384 442 33,000  Level Washington Center
11:32AM 37.3742 -75.4114 41° Northeast 389 448 33,000  Level Washington Center
11:33AM 37.4553 -75.3225 41° Northeast 389 448 33,000  Level Washington Center
11:34AM 37.5386 -75.2303 41° Northeast 384 442 33,000  Level Washington Center
11:35AM 37.6217 -75.1356 42° Northeast 384 442 33,000  Level Washington Center
11:36AM 37.7067 -75.0433 41° Northeast 389 448 33,000  Level Washington Center
11:37AM 37.8544 -74.8783 41° Northeast 406 467 33,000  Level New York Center
11:38AM 37.9411 -74.7833 41° Northeast 406 467 33,000  Level New York Center
11:39AM 38.0236 -74.6875 42° Northeast 406 467 33,000  Level New York Center
11:40AM 38.1208 -74.5872 39° Northeast 406 467 33,000  Level New York Center
11:41AM 38.2053 -74.4911 42° Northeast 406 467 33,000  Level New York Center
11:42AM 38.2897 -74.3950 42° Northeast 406 467 33,000  Level New York Center
11:43AM 38.3761 -74.2958 42° Northeast 406 467 33,000  Level New York Center
11:44AM 38.4625 -74.2019 40° Northeast 406 467 33,000  Level New York Center
11:45AM 38.5467 -74.0997 44° Northeast 406 467 33,000  Level New York Center
11:46AM 38.6308 -74.0028 42° Northeast 406 467 33,000  Level New York Center
11:47AM 38.7167 -73.9081 41° Northeast 406 467 33,000  Level New York Center
11:48AM 38.8008 -73.8078 43° Northeast 406 467 33,000  Level New York Center
11:49AM 38.8867 -73.7075 42° Northeast 406 467 33,000  Level New York Center
11:50AM 38.9539 -73.6250 44° Northeast 418 481 33,000  Level Boston Center
11:51AM 39.0389 -73.5258 42° Northeast 413 475 33,000  Level Boston Center
11:52AM 39.1236 -73.4286 42° Northeast 413 475 33,000  Level Boston Center
11:53AM 39.2114 -73.3267 42° Northeast 418 481 33,000  Level Boston Center
11:54AM 39.2950 -73.2306 42° Northeast 410 472 33,000  Level Boston Center
11:55AM 39.3803 -73.1322 42° Northeast 410 472 33,000  Level Boston Center
11:56AM 39.4819 -73.0106 43° Northeast 411 473 33,000  Level Boston Center
11:57AM 39.5653 -72.9081 43° Northeast 411 473 33,000  Level Boston Center
11:58AM 39.6500 -72.8075 42° Northeast 412 474 33,000  Level Boston Center
11:59AM 39.7350 -72.7053 43° Northeast 413 475 33,000  Level Boston Center
12:00PM 39.8194 -72.6019 43° Northeast 414 476 33,000  Level Boston Center
12:01PM 39.9036 -72.5006 43° Northeast 415 478 33,000 -360 Level Boston Center
12:02PM 39.9892 -72.3981 43° Northeast 415 478 32,300 -1,320 Descending Boston Center
12:03PM 40.0786 -72.2875 43° Northeast 433 498 30,300 -2,160 Descending Boston Center
12:04PM 40.1878 -72.1558 43° Northeast 443 510 27,900 -2,160 Descending Boston Center
12:05PM 40.2758 -72.0467 43° Northeast 432 497 26,000 -1,740 Descending Boston Center
12:06PM 40.3567 -71.9475 43° Northeast 404 465 24,400 -1,560 Descending Boston Center
12:08PM 40.4331 -71.8542 43° Northeast 389 448 22,900 -1,620 Descending Boston Center
12:09PM 40.5086 -71.7622 43° Northeast 367 422 21,200 -1,860 Descending Boston Center
12:10PM 40.5803 -71.6717 44° Northeast 361 415 19,200 -1,680 Descending Boston Center
12:11PM 40.6467 -71.5892 43° Northeast 347 399 17,800 -1,200 Descending Boston Center
12:12PM 40.7133 -71.5064 43° Northeast 335 386 16,800 -1,680 Descending Boston Center
12:13PM 40.7942 -71.4053 43° Northeast 335 386 14,400 -2,220 Descending Boston Center
12:14PM 40.8592 -71.3231 44° Northeast 331 381 12,400 -1,680 Descending Boston Center
12:15PM 40.9244 -71.2425 43° Northeast 326 375 11,000 -720 Descending Boston Center
12:16PM 40.9872 -71.1606 45° Northeast 319 367 11,000 -60 Level Boston Center
12:17PM 41.0578 -71.0728 43° Northeast 326 375 10,900 -60 Descending Boston Center
12:18PM 41.1236 -70.9892 44° Northeast 326 375 10,900  Level Boston Center
12:19PM 41.1872 -70.9072 44° Northeast 325 374 10,900 -180 Level Boston Center
12:20PM 41.2478 -70.8303 44° Northeast 322 371 10,600 -840 Descending Boston Center
12:21PM 41.3183 -70.7386 44° Northeast 315 362 9,200 -1,500 Descending Boston Center
12:22PM 41.3675 -70.6456 55° Northeast 311 358 7,600 -1,140 Descending Boston Center
12:23PM 41.4167 -70.5544 54° Northeast 283 326 7,000 -780 Descending Boston Center
12:24PM 41.4614 -70.4733 54° Northeast 276 318 6,100 -1,260 Descending Boston Center
12:25PM 41.5036 -70.3861 57° Northeast 278 320 4,500 -1,560 Descending Boston Center
12:26PM 41.5439 -70.3097 55° Northeast 268 308 3,000 -1,320 Descending Boston Center
12:27PM 41.5867 -70.2536 44° Northeast 241 277 1,900 -1,080 Descending Boston Center
12:28PM 41.6319 -70.2453 North 192 221 800 -840 Descending Boston Center
12:29PM 41.6586 -70.2725 323° Northwest 145 167 200 2,040 Descending Boston Center
12:30PM 41.6833 -70.3011 319° Northwest 140 161 5,000 4,680 Climbing Boston Center